sensor_id;sensor_type;location;lat;lon;timestamp;P1;durP1;ratioP1;P2;durP2;ratioP2
52744;SDS011;38637;49.984;20.426;2024-01-15T00:00:13;4.73;;;3.47;;
52744;SDS011;38637;49.984;20.426;2024-01-15T00:02:38;4.40;;;2.75;;
52744;SDS011;38637;49.984;20.426;2024-01-15T00:05:04;6.17;;;3.53;;
52744;SDS011;38637;49.984;20.426;2024-01-15T00:07:29;3.57;;;2.93;;
52744;SDS011;38637;49.984;20.426;2024-01-15T00:09:55;5.30;;;3.40;;
52744;SDS011;38637;49.984;20.426;2024-01-15T00:12:20;5.90;;;3.87;;
52744;SDS011;38637;49.984;20.426;2024-01-15T00:14:45;3.80;;;2.97;;
52744;SDS011;38637;49.984;20.426;2024-01-15T00:17:11;3.37;;;2.90;;
52744;SDS011;38637;49.984;20.426;2024-01-15T00:19:36;3.20;;;2.43;;
52744;SDS011;38637;49.984;20.426;2024-01-15T00:22:02;5.50;;;3.33;;
52744;SDS011;38637;49.984;20.426;2024-01-15T00:24:27;5.37;;;3.83;;
52744;SDS011;38637;49.984;20.426;2024-01-15T00:26:53;5.13;;;3.23;;
52744;SDS011;38637;49.984;20.426;2024-01-15T00:29:21;5.70;;;3.50;;
52744;SDS011;38637;49.984;20.426;2024-01-15T00:31:46;5.37;;;4.17;;
52744;SDS011;38637;49.984;20.426;2024-01-15T00:34:12;6.13;;;3.63;;
52744;SDS011;38637;49.984;20.426;2024-01-15T00:36:37;5.47;;;3.53;;
52744;SDS011;38637;49.984;20.426;2024-01-15T00:39:06;7.30;;;4.10;;
52744;SDS011;38637;49.984;20.426;2024-01-15T00:41:31;5.97;;;3.47;;
52744;SDS011;38637;49.984;20.426;2024-01-15T00:43:57;5.47;;;4.20;;
52744;SDS011;38637;49.984;20.426;2024-01-15T00:46:22;4.57;;;3.70;;
52744;SDS011;38637;49.984;20.426;2024-01-15T00:48:47;4.57;;;3.60;;
52744;SDS011;38637;49.984;20.426;2024-01-15T00:51:13;3.70;;;3.20;;
52744;SDS011;38637;49.984;20.426;2024-01-15T00:53:38;5.53;;;3.43;;
52744;SDS011;38637;49.984;20.426;2024-01-15T00:56:03;3.27;;;2.77;;
52744;SDS011;38637;49.984;20.426;2024-01-15T00:58:29;5.20;;;3.90;;
52744;SDS011;38637;49.984;20.426;2024-01-15T01:00:54;3.30;;;2.23;;
52744;SDS011;38637;49.984;20.426;2024-01-15T01:03:20;4.57;;;3.60;;
52744;SDS011;38637;49.984;20.426;2024-01-15T01:05:46;3.80;;;2.93;;
52744;SDS011;38637;49.984;20.426;2024-01-15T01:08:13;3.55;;;2.55;;
52744;SDS011;38637;49.984;20.426;2024-01-15T01:10:39;3.73;;;2.60;;
52744;SDS011;38637;49.984;20.426;2024-01-15T01:13:04;4.37;;;3.30;;
52744;SDS011;38637;49.984;20.426;2024-01-15T01:15:29;4.17;;;2.80;;
52744;SDS011;38637;49.984;20.426;2024-01-15T01:17:55;4.40;;;2.90;;
52744;SDS011;38637;49.984;20.426;2024-01-15T01:20:20;3.50;;;2.80;;
52744;SDS011;38637;49.984;20.426;2024-01-15T01:22:46;3.50;;;2.97;;
52744;SDS011;38637;49.984;20.426;2024-01-15T01:25:11;2.80;;;2.60;;
52744;SDS011;38637;49.984;20.426;2024-01-15T01:27:37;4.03;;;2.87;;
52744;SDS011;38637;49.984;20.426;2024-01-15T01:30:02;4.27;;;3.37;;
52744;SDS011;38637;49.984;20.426;2024-01-15T01:32:28;4.03;;;2.97;;
52744;SDS011;38637;49.984;20.426;2024-01-15T01:34:53;3.60;;;3.03;;
52744;SDS011;38637;49.984;20.426;2024-01-15T01:37:19;3.03;;;2.53;;
52744;SDS011;38637;49.984;20.426;2024-01-15T01:39:45;3.13;;;2.80;;
52744;SDS011;38637;49.984;20.426;2024-01-15T01:42:10;3.30;;;2.83;;
52744;SDS011;38637;49.984;20.426;2024-01-15T01:44:36;3.67;;;2.88;;
52744;SDS011;38637;49.984;20.426;2024-01-15T01:47:02;4.30;;;2.77;;
52744;SDS011;38637;49.984;20.426;2024-01-15T01:49:29;3.25;;;2.55;;
52744;SDS011;38637;49.984;20.426;2024-01-15T01:51:56;4.00;;;3.07;;
52744;SDS011;38637;49.984;20.426;2024-01-15T01:54:23;3.35;;;2.50;;
52744;SDS011;38637;49.984;20.426;2024-01-15T01:56:50;4.80;;;2.95;;
52744;SDS011;38637;49.984;20.426;2024-01-15T01:59:16;3.72;;;2.60;;
52744;SDS011;38637;49.984;20.426;2024-01-15T02:01:42;3.10;;;2.77;;
52744;SDS011;38637;49.984;20.426;2024-01-15T02:04:09;5.18;;;3.22;;
52744;SDS011;38637;49.984;20.426;2024-01-15T02:06:35;3.47;;;2.88;;
52744;SDS011;38637;49.984;20.426;2024-01-15T02:09:01;2.57;;;2.37;;
52744;SDS011;38637;49.984;20.426;2024-01-15T02:11:26;4.97;;;3.00;;
52744;SDS011;38637;49.984;20.426;2024-01-15T02:13:52;5.70;;;3.90;;
52744;SDS011;38637;49.984;20.426;2024-01-15T02:16:17;5.07;;;3.60;;
52744;SDS011;38637;49.984;20.426;2024-01-15T02:18:43;3.33;;;2.60;;
52744;SDS011;38637;49.984;20.426;2024-01-15T02:21:09;5.47;;;3.63;;
52744;SDS011;38637;49.984;20.426;2024-01-15T02:23:35;3.42;;;2.80;;
52744;SDS011;38637;49.984;20.426;2024-01-15T02:26:02;4.28;;;2.88;;
52744;SDS011;38637;49.984;20.426;2024-01-15T02:28:28;4.18;;;3.42;;
52744;SDS011;38637;49.984;20.426;2024-01-15T02:30:54;3.33;;;2.20;;
52744;SDS011;38637;49.984;20.426;2024-01-15T02:33:19;3.53;;;2.60;;
52744;SDS011;38637;49.984;20.426;2024-01-15T02:35:44;4.37;;;2.83;;
52744;SDS011;38637;49.984;20.426;2024-01-15T02:38:11;4.70;;;2.85;;
52744;SDS011;38637;49.984;20.426;2024-01-15T02:40:38;3.77;;;3.00;;
52744;SDS011;38637;49.984;20.426;2024-01-15T02:43:04;3.70;;;2.58;;
52744;SDS011;38637;49.984;20.426;2024-01-15T02:45:29;4.07;;;3.23;;
52744;SDS011;38637;49.984;20.426;2024-01-15T02:47:55;2.57;;;2.13;;
52744;SDS011;38637;49.984;20.426;2024-01-15T02:50:21;2.73;;;2.30;;
52744;SDS011;38637;49.984;20.426;2024-01-15T02:52:46;3.17;;;2.50;;
52744;SDS011;38637;49.984;20.426;2024-01-15T02:55:12;2.77;;;2.13;;
52744;SDS011;38637;49.984;20.426;2024-01-15T02:57:37;2.63;;;2.13;;
52744;SDS011;38637;49.984;20.426;2024-01-15T03:00:02;3.30;;;2.30;;
52744;SDS011;38637;49.984;20.426;2024-01-15T03:02:29;2.85;;;1.95;;
52744;SDS011;38637;49.984;20.426;2024-01-15T03:04:56;3.67;;;2.70;;
52744;SDS011;38637;49.984;20.426;2024-01-15T03:07:22;3.05;;;2.42;;
52744;SDS011;38637;49.984;20.426;2024-01-15T03:09:47;3.63;;;2.47;;
52744;SDS011;38637;49.984;20.426;2024-01-15T03:12:13;1.67;;;1.53;;
52744;SDS011;38637;49.984;20.426;2024-01-15T03:14:38;2.30;;;1.93;;
52744;SDS011;38637;49.984;20.426;2024-01-15T03:17:03;1.70;;;1.60;;
52744;SDS011;38637;49.984;20.426;2024-01-15T03:19:29;2.97;;;2.67;;
52744;SDS011;38637;49.984;20.426;2024-01-15T03:21:55;2.65;;;2.05;;
52744;SDS011;38637;49.984;20.426;2024-01-15T03:24:21;2.30;;;1.80;;
52744;SDS011;38637;49.984;20.426;2024-01-15T03:26:46;4.50;;;2.33;;
52744;SDS011;38637;49.984;20.426;2024-01-15T03:29:12;2.93;;;1.87;;
52744;SDS011;38637;49.984;20.426;2024-01-15T03:31:37;2.73;;;1.60;;
52744;SDS011;38637;49.984;20.426;2024-01-15T03:34:02;2.17;;;1.80;;
52744;SDS011;38637;49.984;20.426;2024-01-15T03:36:28;3.00;;;1.23;;
52744;SDS011;38637;49.984;20.426;2024-01-15T03:38:53;1.43;;;1.30;;
52744;SDS011;38637;49.984;20.426;2024-01-15T03:41:19;1.90;;;1.60;;
52744;SDS011;38637;49.984;20.426;2024-01-15T03:43:44;1.90;;;1.40;;
52744;SDS011;38637;49.984;20.426;2024-01-15T03:46:09;2.63;;;1.50;;
52744;SDS011;38637;49.984;20.426;2024-01-15T03:48:35;3.00;;;1.33;;
52744;SDS011;38637;49.984;20.426;2024-01-15T03:51:00;2.70;;;1.80;;
52744;SDS011;38637;49.984;20.426;2024-01-15T03:53:25;5.83;;;2.93;;
52744;SDS011;38637;49.984;20.426;2024-01-15T03:55:51;3.87;;;2.40;;
52744;SDS011;38637;49.984;20.426;2024-01-15T03:58:17;1.58;;;1.48;;
52744;SDS011;38637;49.984;20.426;2024-01-15T04:00:42;2.57;;;1.77;;
52744;SDS011;38637;49.984;20.426;2024-01-15T04:03:08;2.63;;;2.07;;
52744;SDS011;38637;49.984;20.426;2024-01-15T04:05:34;2.93;;;2.40;;
52744;SDS011;38637;49.984;20.426;2024-01-15T04:07:59;2.60;;;2.03;;
52744;SDS011;38637;49.984;20.426;2024-01-15T04:10:24;2.93;;;2.47;;
52744;SDS011;38637;49.984;20.426;2024-01-15T04:12:50;3.00;;;2.10;;
52744;SDS011;38637;49.984;20.426;2024-01-15T04:15:15;2.33;;;1.90;;
52744;SDS011;38637;49.984;20.426;2024-01-15T04:17:40;2.73;;;2.20;;
52744;SDS011;38637;49.984;20.426;2024-01-15T04:20:06;2.77;;;2.10;;
52744;SDS011;38637;49.984;20.426;2024-01-15T04:22:32;2.92;;;2.60;;
52744;SDS011;38637;49.984;20.426;2024-01-15T04:24:59;4.00;;;3.35;;
52744;SDS011;38637;49.984;20.426;2024-01-15T04:27:24;7.57;;;3.10;;
52744;SDS011;38637;49.984;20.426;2024-01-15T04:29:49;4.27;;;2.53;;
52744;SDS011;38637;49.984;20.426;2024-01-15T04:32:15;5.50;;;2.67;;
52744;SDS011;38637;49.984;20.426;2024-01-15T04:34:40;5.63;;;2.77;;
52744;SDS011;38637;49.984;20.426;2024-01-15T04:37:05;5.57;;;2.90;;
52744;SDS011;38637;49.984;20.426;2024-01-15T04:39:31;3.43;;;2.47;;
52744;SDS011;38637;49.984;20.426;2024-01-15T04:41:56;4.73;;;1.97;;
52744;SDS011;38637;49.984;20.426;2024-01-15T04:44:22;2.73;;;1.97;;
52744;SDS011;38637;49.984;20.426;2024-01-15T04:46:47;2.83;;;2.40;;
52744;SDS011;38637;49.984;20.426;2024-01-15T04:49:12;5.30;;;3.57;;
52744;SDS011;38637;49.984;20.426;2024-01-15T04:51:38;13.67;;;9.73;;
52744;SDS011;38637;49.984;20.426;2024-01-15T04:54:03;9.30;;;6.57;;
52744;SDS011;38637;49.984;20.426;2024-01-15T04:56:29;6.77;;;5.03;;
52744;SDS011;38637;49.984;20.426;2024-01-15T04:58:54;12.60;;;8.30;;
52744;SDS011;38637;49.984;20.426;2024-01-15T05:01:19;6.63;;;4.90;;
52744;SDS011;38637;49.984;20.426;2024-01-15T05:03:45;4.30;;;3.13;;
52744;SDS011;38637;49.984;20.426;2024-01-15T05:06:10;5.90;;;3.17;;
52744;SDS011;38637;49.984;20.426;2024-01-15T05:08:35;4.83;;;3.10;;
52744;SDS011;38637;49.984;20.426;2024-01-15T05:11:01;2.67;;;2.20;;
52744;SDS011;38637;49.984;20.426;2024-01-15T05:13:26;2.83;;;2.40;;
52744;SDS011;38637;49.984;20.426;2024-01-15T05:15:52;3.67;;;2.10;;
52744;SDS011;38637;49.984;20.426;2024-01-15T05:18:17;2.58;;;1.88;;
52744;SDS011;38637;49.984;20.426;2024-01-15T05:20:43;4.10;;;2.40;;
52744;SDS011;38637;49.984;20.426;2024-01-15T05:23:08;2.93;;;1.93;;
52744;SDS011;38637;49.984;20.426;2024-01-15T05:25:34;2.80;;;2.13;;
52744;SDS011;38637;49.984;20.426;2024-01-15T05:27:59;2.63;;;2.03;;
52744;SDS011;38637;49.984;20.426;2024-01-15T05:30:24;3.00;;;2.07;;
52744;SDS011;38637;49.984;20.426;2024-01-15T05:32:50;3.40;;;2.13;;
52744;SDS011;38637;49.984;20.426;2024-01-15T05:35:15;2.37;;;1.93;;
52744;SDS011;38637;49.984;20.426;2024-01-15T05:37:42;3.30;;;2.43;;
52744;SDS011;38637;49.984;20.426;2024-01-15T05:40:09;5.03;;;2.53;;
52744;SDS011;38637;49.984;20.426;2024-01-15T05:42:34;3.77;;;2.47;;
52744;SDS011;38637;49.984;20.426;2024-01-15T05:45:00;4.67;;;3.20;;
52744;SDS011;38637;49.984;20.426;2024-01-15T05:47:27;2.72;;;2.25;;
52744;SDS011;38637;49.984;20.426;2024-01-15T05:49:53;2.77;;;2.10;;
52744;SDS011;38637;49.984;20.426;2024-01-15T05:52:19;2.65;;;2.00;;
52744;SDS011;38637;49.984;20.426;2024-01-15T05:54:46;3.78;;;2.15;;
52744;SDS011;38637;49.984;20.426;2024-01-15T05:57:12;2.90;;;2.17;;
52744;SDS011;38637;49.984;20.426;2024-01-15T05:59:37;3.80;;;2.73;;
52744;SDS011;38637;49.984;20.426;2024-01-15T06:02:03;4.37;;;2.87;;
52744;SDS011;38637;49.984;20.426;2024-01-15T06:04:28;3.10;;;2.17;;
52744;SDS011;38637;49.984;20.426;2024-01-15T06:06:53;3.67;;;2.10;;
52744;SDS011;38637;49.984;20.426;2024-01-15T06:09:19;3.20;;;2.47;;
52744;SDS011;38637;49.984;20.426;2024-01-15T06:11:44;2.63;;;1.70;;
52744;SDS011;38637;49.984;20.426;2024-01-15T06:14:10;2.70;;;1.80;;
52744;SDS011;38637;49.984;20.426;2024-01-15T06:16:35;2.73;;;2.07;;
52744;SDS011;38637;49.984;20.426;2024-01-15T06:19:00;2.30;;;1.83;;
52744;SDS011;38637;49.984;20.426;2024-01-15T06:21:26;1.83;;;1.67;;
52744;SDS011;38637;49.984;20.426;2024-01-15T06:23:51;2.87;;;1.93;;
52744;SDS011;38637;49.984;20.426;2024-01-15T06:26:16;2.77;;;2.20;;
52744;SDS011;38637;49.984;20.426;2024-01-15T06:28:42;4.83;;;2.67;;
52744;SDS011;38637;49.984;20.426;2024-01-15T06:31:07;4.87;;;2.70;;
52744;SDS011;38637;49.984;20.426;2024-01-15T06:33:33;3.53;;;2.77;;
52744;SDS011;38637;49.984;20.426;2024-01-15T06:35:58;3.33;;;2.40;;
52744;SDS011;38637;49.984;20.426;2024-01-15T06:38:23;3.80;;;2.30;;
52744;SDS011;38637;49.984;20.426;2024-01-15T06:40:50;2.92;;;2.63;;
52744;SDS011;38637;49.984;20.426;2024-01-15T06:43:16;5.45;;;2.75;;
52744;SDS011;38637;49.984;20.426;2024-01-15T06:45:43;3.55;;;2.30;;
52744;SDS011;38637;49.984;20.426;2024-01-15T06:48:09;6.53;;;4.20;;
52744;SDS011;38637;49.984;20.426;2024-01-15T06:50:34;4.80;;;3.10;;
52744;SDS011;38637;49.984;20.426;2024-01-15T06:53:00;5.10;;;3.50;;
52744;SDS011;38637;49.984;20.426;2024-01-15T06:55:25;4.17;;;2.90;;
52744;SDS011;38637;49.984;20.426;2024-01-15T06:57:51;16.53;;;5.87;;
52744;SDS011;38637;49.984;20.426;2024-01-15T07:00:17;8.13;;;5.77;;
52744;SDS011;38637;49.984;20.426;2024-01-15T07:02:44;5.97;;;4.85;;
52744;SDS011;38637;49.984;20.426;2024-01-15T07:05:10;10.67;;;6.80;;
52744;SDS011;38637;49.984;20.426;2024-01-15T07:07:36;6.97;;;5.23;;
52744;SDS011;38637;49.984;20.426;2024-01-15T07:10:01;7.40;;;5.13;;
52744;SDS011;38637;49.984;20.426;2024-01-15T07:12:28;9.50;;;6.63;;
52744;SDS011;38637;49.984;20.426;2024-01-15T07:14:54;22.23;;;12.27;;
52744;SDS011;38637;49.984;20.426;2024-01-15T07:17:20;13.32;;;8.55;;
52744;SDS011;38637;49.984;20.426;2024-01-15T07:19:45;11.80;;;7.37;;
52744;SDS011;38637;49.984;20.426;2024-01-15T07:22:11;9.30;;;6.03;;
52744;SDS011;38637;49.984;20.426;2024-01-15T07:24:37;4.73;;;3.53;;
52744;SDS011;38637;49.984;20.426;2024-01-15T07:27:02;11.70;;;6.13;;
52744;SDS011;38637;49.984;20.426;2024-01-15T07:29:29;12.68;;;5.60;;
52744;SDS011;38637;49.984;20.426;2024-01-15T07:31:58;3.80;;;2.20;;
52744;SDS011;38637;49.984;20.426;2024-01-15T07:34:23;4.53;;;3.42;;
52744;SDS011;38637;49.984;20.426;2024-01-15T07:36:49;4.63;;;2.97;;
52744;SDS011;38637;49.984;20.426;2024-01-15T07:39:14;5.40;;;3.43;;
52744;SDS011;38637;49.984;20.426;2024-01-15T07:41:39;6.03;;;3.63;;
52744;SDS011;38637;49.984;20.426;2024-01-15T07:44:05;4.00;;;2.90;;
52744;SDS011;38637;49.984;20.426;2024-01-15T07:46:30;7.37;;;4.37;;
52744;SDS011;38637;49.984;20.426;2024-01-15T07:48:56;5.93;;;3.93;;
52744;SDS011;38637;49.984;20.426;2024-01-15T07:51:23;6.22;;;3.75;;
52744;SDS011;38637;49.984;20.426;2024-01-15T07:53:53;5.15;;;3.60;;
52744;SDS011;38637;49.984;20.426;2024-01-15T07:56:19;4.93;;;3.70;;
52744;SDS011;38637;49.984;20.426;2024-01-15T07:58:44;8.43;;;6.10;;
52744;SDS011;38637;49.984;20.426;2024-01-15T08:01:10;4.50;;;4.03;;
52744;SDS011;38637;49.984;20.426;2024-01-15T08:03:35;4.50;;;3.97;;
52744;SDS011;38637;49.984;20.426;2024-01-15T08:06:01;3.10;;;2.57;;
52744;SDS011;38637;49.984;20.426;2024-01-15T08:08:26;5.57;;;4.53;;
52744;SDS011;38637;49.984;20.426;2024-01-15T08:10:52;8.60;;;6.30;;
52744;SDS011;38637;49.984;20.426;2024-01-15T08:13:18;6.28;;;4.22;;
52744;SDS011;38637;49.984;20.426;2024-01-15T08:15:43;10.73;;;6.97;;
52744;SDS011;38637;49.984;20.426;2024-01-15T08:18:08;6.67;;;3.50;;
52744;SDS011;38637;49.984;20.426;2024-01-15T08:20:34;8.17;;;3.57;;
52744;SDS011;38637;49.984;20.426;2024-01-15T08:22:59;6.87;;;3.87;;
52744;SDS011;38637;49.984;20.426;2024-01-15T08:25:25;3.37;;;3.03;;
52744;SDS011;38637;49.984;20.426;2024-01-15T08:27:51;7.43;;;5.10;;
52744;SDS011;38637;49.984;20.426;2024-01-15T08:30:16;5.37;;;4.17;;
52744;SDS011;38637;49.984;20.426;2024-01-15T08:35:08;7.80;;;5.10;;
52744;SDS011;38637;49.984;20.426;2024-01-15T08:37:34;4.93;;;3.80;;
52744;SDS011;38637;49.984;20.426;2024-01-15T08:39:59;8.57;;;6.30;;
52744;SDS011;38637;49.984;20.426;2024-01-15T08:42:25;6.27;;;3.63;;
52744;SDS011;38637;49.984;20.426;2024-01-15T08:44:50;5.83;;;4.00;;
52744;SDS011;38637;49.984;20.426;2024-01-15T08:47:16;6.83;;;3.83;;
52744;SDS011;38637;49.984;20.426;2024-01-15T08:49:41;6.60;;;3.93;;
52744;SDS011;38637;49.984;20.426;2024-01-15T08:52:09;4.40;;;3.22;;
52744;SDS011;38637;49.984;20.426;2024-01-15T08:54:34;6.13;;;4.50;;
52744;SDS011;38637;49.984;20.426;2024-01-15T08:57:00;8.93;;;7.20;;
52744;SDS011;38637;49.984;20.426;2024-01-15T08:59:25;8.87;;;5.17;;
52744;SDS011;38637;49.984;20.426;2024-01-15T09:01:53;5.47;;;4.17;;
52744;SDS011;38637;49.984;20.426;2024-01-15T09:04:19;10.40;;;7.82;;
52744;SDS011;38637;49.984;20.426;2024-01-15T09:06:47;7.87;;;6.07;;
52744;SDS011;38637;49.984;20.426;2024-01-15T09:09:13;13.90;;;6.43;;
52744;SDS011;38637;49.984;20.426;2024-01-15T09:11:41;8.70;;;5.47;;
52744;SDS011;38637;49.984;20.426;2024-01-15T09:14:06;8.33;;;5.93;;
52744;SDS011;38637;49.984;20.426;2024-01-15T09:18:58;9.43;;;5.25;;
52744;SDS011;38637;49.984;20.426;2024-01-15T09:21:24;6.53;;;4.63;;
52744;SDS011;38637;49.984;20.426;2024-01-15T09:23:49;9.23;;;5.87;;
52744;SDS011;38637;49.984;20.426;2024-01-15T09:26:15;6.90;;;5.88;;
52744;SDS011;38637;49.984;20.426;2024-01-15T09:28:41;7.77;;;6.13;;
52744;SDS011;38637;49.984;20.426;2024-01-15T09:31:06;10.30;;;8.20;;
52744;SDS011;38637;49.984;20.426;2024-01-15T09:33:32;10.63;;;9.53;;
52744;SDS011;38637;49.984;20.426;2024-01-15T09:36:00;7.07;;;5.60;;
52744;SDS011;38637;49.984;20.426;2024-01-15T09:38:27;6.60;;;4.97;;
52744;SDS011;38637;49.984;20.426;2024-01-15T09:40:52;6.50;;;5.40;;
52744;SDS011;38637;49.984;20.426;2024-01-15T09:43:17;6.13;;;4.83;;
52744;SDS011;38637;49.984;20.426;2024-01-15T09:45:44;7.38;;;5.93;;
52744;SDS011;38637;49.984;20.426;2024-01-15T09:48:09;6.97;;;5.63;;
52744;SDS011;38637;49.984;20.426;2024-01-15T09:50:35;7.97;;;5.97;;
52744;SDS011;38637;49.984;20.426;2024-01-15T09:53:00;9.03;;;6.77;;
52744;SDS011;38637;49.984;20.426;2024-01-15T09:55:26;10.67;;;8.53;;
52744;SDS011;38637;49.984;20.426;2024-01-15T09:57:53;8.68;;;6.03;;
52744;SDS011;38637;49.984;20.426;2024-01-15T10:00:19;8.45;;;5.53;;
52744;SDS011;38637;49.984;20.426;2024-01-15T10:02:45;8.43;;;6.57;;
52744;SDS011;38637;49.984;20.426;2024-01-15T10:05:10;6.37;;;5.23;;
52744;SDS011;38637;49.984;20.426;2024-01-15T10:07:36;10.63;;;6.13;;
52744;SDS011;38637;49.984;20.426;2024-01-15T10:10:02;9.55;;;4.78;;
52744;SDS011;38637;49.984;20.426;2024-01-15T10:12:32;7.03;;;4.20;;
52744;SDS011;38637;49.984;20.426;2024-01-15T10:14:58;8.03;;;4.93;;
52744;SDS011;38637;49.984;20.426;2024-01-15T10:17:24;18.07;;;5.33;;
52744;SDS011;38637;49.984;20.426;2024-01-15T10:19:50;6.78;;;4.82;;
52744;SDS011;38637;49.984;20.426;2024-01-15T10:22:15;7.43;;;4.73;;
52744;SDS011;38637;49.984;20.426;2024-01-15T10:24:41;4.43;;;3.97;;
52744;SDS011;38637;49.984;20.426;2024-01-15T10:27:09;7.40;;;5.27;;
52744;SDS011;38637;49.984;20.426;2024-01-15T10:29:36;6.05;;;4.15;;
52744;SDS011;38637;49.984;20.426;2024-01-15T10:32:02;5.85;;;4.50;;
52744;SDS011;38637;49.984;20.426;2024-01-15T10:34:31;6.18;;;5.15;;
52744;SDS011;38637;49.984;20.426;2024-01-15T10:36:56;7.43;;;5.80;;
52744;SDS011;38637;49.984;20.426;2024-01-15T10:39:22;6.23;;;5.60;;
52744;SDS011;38637;49.984;20.426;2024-01-15T10:41:48;8.10;;;5.30;;
52744;SDS011;38637;49.984;20.426;2024-01-15T10:44:14;6.45;;;5.35;;
52744;SDS011;38637;49.984;20.426;2024-01-15T10:46:39;8.97;;;5.90;;
52744;SDS011;38637;49.984;20.426;2024-01-15T10:49:05;8.30;;;6.63;;
52744;SDS011;38637;49.984;20.426;2024-01-15T10:51:31;6.90;;;6.28;;
52744;SDS011;38637;49.984;20.426;2024-01-15T10:53:56;8.90;;;5.80;;
52744;SDS011;38637;49.984;20.426;2024-01-15T10:56:24;17.83;;;10.65;;
52744;SDS011;38637;49.984;20.426;2024-01-15T10:58:50;9.73;;;6.05;;
52744;SDS011;38637;49.984;20.426;2024-01-15T11:01:16;10.70;;;7.97;;
52744;SDS011;38637;49.984;20.426;2024-01-15T11:03:42;8.07;;;6.00;;
52744;SDS011;38637;49.984;20.426;2024-01-15T11:06:18;9.25;;;5.80;;
52744;SDS011;38637;49.984;20.426;2024-01-15T11:08:49;8.57;;;5.95;;
52744;SDS011;38637;49.984;20.426;2024-01-15T11:11:16;10.05;;;6.30;;
52744;SDS011;38637;49.984;20.426;2024-01-15T11:13:42;9.07;;;6.20;;
52744;SDS011;38637;49.984;20.426;2024-01-15T11:16:12;6.95;;;4.55;;
52744;SDS011;38637;49.984;20.426;2024-01-15T11:18:49;7.35;;;5.68;;
52744;SDS011;38637;49.984;20.426;2024-01-15T11:21:25;9.63;;;7.55;;
52744;SDS011;38637;49.984;20.426;2024-01-15T11:23:58;10.50;;;7.70;;
52744;SDS011;38637;49.984;20.426;2024-01-15T11:26:32;8.65;;;5.97;;
52744;SDS011;38637;49.984;20.426;2024-01-15T11:29:02;11.23;;;6.47;;
52744;SDS011;38637;49.984;20.426;2024-01-15T11:34:03;9.65;;;6.00;;
52744;SDS011;38637;49.984;20.426;2024-01-15T11:41:54;7.78;;;6.20;;
52744;SDS011;38637;49.984;20.426;2024-01-15T11:44:20;6.72;;;4.85;;
52744;SDS011;38637;49.984;20.426;2024-01-15T11:46:53;7.47;;;6.35;;
52744;SDS011;38637;49.984;20.426;2024-01-15T11:49:30;9.57;;;6.90;;
52744;SDS011;38637;49.984;20.426;2024-01-15T11:52:21;8.57;;;7.57;;
52744;SDS011;38637;49.984;20.426;2024-01-15T11:54:49;8.15;;;6.47;;
52744;SDS011;38637;49.984;20.426;2024-01-15T11:57:28;13.40;;;10.48;;
52744;SDS011;38637;49.984;20.426;2024-01-15T12:00:16;7.88;;;7.03;;
52744;SDS011;38637;49.984;20.426;2024-01-15T12:02:42;14.97;;;10.93;;
52744;SDS011;38637;49.984;20.426;2024-01-15T12:07:34;13.93;;;10.63;;
52744;SDS011;38637;49.984;20.426;2024-01-15T12:10:00;15.13;;;11.93;;
52744;SDS011;38637;49.984;20.426;2024-01-15T12:15:27;9.70;;;7.00;;
52744;SDS011;38637;49.984;20.426;2024-01-15T12:17:57;9.18;;;6.28;;
52744;SDS011;38637;49.984;20.426;2024-01-15T12:20:27;5.90;;;4.90;;
52744;SDS011;38637;49.984;20.426;2024-01-15T12:22:57;4.85;;;3.60;;
52744;SDS011;38637;49.984;20.426;2024-01-15T12:25:23;6.37;;;4.93;;
52744;SDS011;38637;49.984;20.426;2024-01-15T12:27:50;6.78;;;4.95;;
52744;SDS011;38637;49.984;20.426;2024-01-15T12:30:21;5.28;;;2.90;;
52744;SDS011;38637;49.984;20.426;2024-01-15T12:32:46;5.83;;;3.80;;
52744;SDS011;38637;49.984;20.426;2024-01-15T12:35:12;4.33;;;3.13;;
52744;SDS011;38637;49.984;20.426;2024-01-15T12:37:39;5.65;;;3.80;;
52744;SDS011;38637;49.984;20.426;2024-01-15T12:40:05;9.30;;;5.30;;
52744;SDS011;38637;49.984;20.426;2024-01-15T12:42:35;6.22;;;3.63;;
52744;SDS011;38637;49.984;20.426;2024-01-15T12:45:01;4.53;;;3.28;;
52744;SDS011;38637;49.984;20.426;2024-01-15T12:47:29;5.13;;;3.80;;
52744;SDS011;38637;49.984;20.426;2024-01-15T12:49:55;7.72;;;3.95;;
52744;SDS011;38637;49.984;20.426;2024-01-15T12:54:51;5.43;;;3.17;;
52744;SDS011;38637;49.984;20.426;2024-01-15T12:57:17;7.38;;;4.32;;
52744;SDS011;38637;49.984;20.426;2024-01-15T12:59:43;8.33;;;5.07;;
52744;SDS011;38637;49.984;20.426;2024-01-15T13:02:09;8.27;;;5.95;;
52744;SDS011;38637;49.984;20.426;2024-01-15T13:04:39;5.07;;;3.35;;
52744;SDS011;38637;49.984;20.426;2024-01-15T13:07:05;7.00;;;4.75;;
52744;SDS011;38637;49.984;20.426;2024-01-15T13:09:32;5.43;;;3.30;;
52744;SDS011;38637;49.984;20.426;2024-01-15T13:11:57;5.53;;;3.73;;
52744;SDS011;38637;49.984;20.426;2024-01-15T13:14:23;5.20;;;4.00;;
52744;SDS011;38637;49.984;20.426;2024-01-15T13:16:48;3.30;;;2.70;;
52744;SDS011;38637;49.984;20.426;2024-01-15T13:19:13;3.33;;;2.53;;
52744;SDS011;38637;49.984;20.426;2024-01-15T13:21:42;3.27;;;2.53;;
52744;SDS011;38637;49.984;20.426;2024-01-15T13:24:08;6.57;;;4.25;;
52744;SDS011;38637;49.984;20.426;2024-01-15T13:26:34;6.38;;;4.75;;
52744;SDS011;38637;49.984;20.426;2024-01-15T13:29:00;10.02;;;6.13;;
52744;SDS011;38637;49.984;20.426;2024-01-15T13:31:27;10.10;;;7.03;;
52744;SDS011;38637;49.984;20.426;2024-01-15T13:33:52;12.32;;;9.10;;
52744;SDS011;38637;49.984;20.426;2024-01-15T13:36:18;13.10;;;10.07;;
52744;SDS011;38637;49.984;20.426;2024-01-15T13:38:43;11.43;;;6.87;;
52744;SDS011;38637;49.984;20.426;2024-01-15T13:41:08;11.67;;;6.93;;
52744;SDS011;38637;49.984;20.426;2024-01-15T13:43:34;11.20;;;7.57;;
52744;SDS011;38637;49.984;20.426;2024-01-15T13:45:59;10.23;;;6.07;;
52744;SDS011;38637;49.984;20.426;2024-01-15T13:48:25;14.83;;;8.47;;
52744;SDS011;38637;49.984;20.426;2024-01-15T13:50:51;9.90;;;6.97;;
52744;SDS011;38637;49.984;20.426;2024-01-15T13:53:17;11.48;;;6.60;;
52744;SDS011;38637;49.984;20.426;2024-01-15T13:55:44;9.95;;;7.55;;
52744;SDS011;38637;49.984;20.426;2024-01-15T13:58:09;8.83;;;5.83;;
52744;SDS011;38637;49.984;20.426;2024-01-15T14:00:35;9.23;;;5.23;;
52744;SDS011;38637;49.984;20.426;2024-01-15T14:03:00;9.27;;;6.70;;
52744;SDS011;38637;49.984;20.426;2024-01-15T14:05:25;8.77;;;5.53;;
52744;SDS011;38637;49.984;20.426;2024-01-15T14:07:51;7.23;;;4.77;;
52744;SDS011;38637;49.984;20.426;2024-01-15T14:10:16;11.00;;;6.93;;
52744;SDS011;38637;49.984;20.426;2024-01-15T14:12:43;9.80;;;6.87;;
52744;SDS011;38637;49.984;20.426;2024-01-15T14:15:08;11.75;;;7.32;;
52744;SDS011;38637;49.984;20.426;2024-01-15T14:17:34;7.70;;;6.73;;
52744;SDS011;38637;49.984;20.426;2024-01-15T14:19:59;8.37;;;5.23;;
52744;SDS011;38637;49.984;20.426;2024-01-15T14:22:25;11.27;;;7.83;;
52744;SDS011;38637;49.984;20.426;2024-01-15T14:24:50;12.33;;;8.37;;
52744;SDS011;38637;49.984;20.426;2024-01-15T14:27:16;10.40;;;6.47;;
52744;SDS011;38637;49.984;20.426;2024-01-15T14:29:41;6.83;;;5.07;;
52744;SDS011;38637;49.984;20.426;2024-01-15T14:32:07;10.83;;;7.60;;
52744;SDS011;38637;49.984;20.426;2024-01-15T14:34:32;8.30;;;5.57;;
52744;SDS011;38637;49.984;20.426;2024-01-15T14:36:57;10.17;;;6.83;;
52744;SDS011;38637;49.984;20.426;2024-01-15T14:39:23;26.50;;;14.70;;
52744;SDS011;38637;49.984;20.426;2024-01-15T14:41:48;16.13;;;10.93;;
52744;SDS011;38637;49.984;20.426;2024-01-15T14:44:14;13.27;;;8.37;;
52744;SDS011;38637;49.984;20.426;2024-01-15T14:46:39;13.03;;;8.57;;